createdAt,value
2023-04-30T00:00:33.270Z,10.02
2023-04-30T00:05:34.919Z,9.95
2023-04-30T00:10:36.565Z,8.93
2023-04-30T00:15:38.141Z,10.30
2023-04-30T00:20:39.707Z,9.60
2023-04-30T00:25:41.381Z,8.02
2023-04-30T00:30:43.116Z,8.15
2023-04-30T00:35:45.165Z,7.28
2023-04-30T00:40:49.896Z,6.88
2023-04-30T00:45:51.584Z,6.75
2023-04-30T00:50:53.254Z,7.15
2023-04-30T00:55:55.941Z,6.00
2023-04-30T01:00:58.634Z,6.65
2023-04-30T01:06:00.472Z,7.10
2023-04-30T01:11:13.126Z,5.68
2023-04-30T01:16:28.519Z,6.03
2023-04-30T01:21:33.216Z,6.18
2023-04-30T01:26:48.949Z,6.85
2023-04-30T01:31:51.783Z,6.50
2023-04-30T01:37:11.600Z,6.40
2023-04-30T01:42:41.543Z,5.60
2023-04-30T01:48:08.927Z,5.95
2023-04-30T01:53:16.907Z,5.63
2023-04-30T01:58:22.662Z,6.38
2023-04-30T02:03:24.636Z,6.43
2023-04-30T02:08:27.216Z,6.25
2023-04-30T02:13:28.823Z,6.18
2023-04-30T02:18:30.572Z,5.60
2023-04-30T02:23:32.182Z,6.53
2023-04-30T02:28:33.973Z,5.97
2023-04-30T02:33:35.618Z,5.80
2023-04-30T02:38:37.199Z,5.95
2023-04-30T02:43:38.862Z,6.10
2023-04-30T02:48:40.493Z,5.88
2023-04-30T02:53:42.042Z,5.95
2023-04-30T02:58:43.463Z,5.90
2023-04-30T03:03:45.032Z,6.07
2023-04-30T03:08:46.947Z,6.47
2023-04-30T03:13:51.907Z,6.38
2023-04-30T03:18:53.670Z,6.43
2023-04-30T03:23:55.180Z,6.43
2023-04-30T03:28:56.783Z,7.00
2023-04-30T03:33:58.463Z,6.72
2023-04-30T03:39:00.546Z,6.68
2023-04-30T03:44:02.138Z,6.60
2023-04-30T03:49:03.753Z,7.05
2023-04-30T03:54:08.504Z,6.15
2023-04-30T03:59:10.253Z,7.22
2023-04-30T04:04:12.019Z,6.65
2023-04-30T04:09:13.638Z,6.72
2023-04-30T04:14:17.152Z,6.68
2023-04-30T04:19:19.155Z,7.20
2023-04-30T04:24:21.195Z,6.88
2023-04-30T04:29:23.335Z,6.85
2023-04-30T04:34:24.862Z,7.80
2023-04-30T04:39:26.634Z,7.28
2023-04-30T04:44:29.057Z,7.60
2023-04-30T04:49:31.063Z,7.75
2023-04-30T04:54:32.616Z,6.63
2023-04-30T04:59:34.218Z,7.93
2023-04-30T05:04:35.792Z,7.03
2023-04-30T05:09:37.421Z,7.43
2023-04-30T05:14:39.054Z,7.88
2023-04-30T05:19:40.796Z,7.53
2023-04-30T05:24:42.366Z,7.45
2023-04-30T05:29:43.881Z,7.20
2023-04-30T05:34:45.386Z,6.63
2023-04-30T05:39:47.001Z,7.30
2023-04-30T05:44:49.271Z,7.10
2023-04-30T05:49:50.812Z,7.40
2023-04-30T05:54:52.315Z,7.55
2023-04-30T05:59:54.815Z,7.60
2023-04-30T06:04:56.710Z,7.38
2023-04-30T06:09:58.939Z,8.05
2023-04-30T06:15:00.642Z,7.13
2023-04-30T06:20:06.857Z,7.18
2023-04-30T06:25:09.038Z,8.25
2023-04-30T06:30:11.049Z,7.68
2023-04-30T06:35:12.635Z,8.88
2023-04-30T06:40:14.147Z,8.25
2023-04-30T06:45:15.692Z,7.85
2023-04-30T06:50:17.276Z,8.77
2023-04-30T06:55:19.029Z,7.88
2023-04-30T07:00:20.637Z,8.50
2023-04-30T07:05:22.176Z,8.00
2023-04-30T07:10:23.826Z,7.68
2023-04-30T07:15:25.392Z,8.07
2023-04-30T07:20:26.918Z,8.63
2023-04-30T07:25:28.442Z,8.13
2023-04-30T07:30:29.940Z,8.38
2023-04-30T07:35:31.463Z,7.35
2023-04-30T07:40:36.151Z,7.85
2023-04-30T07:45:38.388Z,8.35
2023-04-30T07:50:40.007Z,7.78
2023-04-30T07:55:41.571Z,7.53
2023-04-30T08:00:43.206Z,7.95
2023-04-30T08:05:44.796Z,7.15
2023-04-30T08:10:46.336Z,6.85
2023-04-30T08:15:47.975Z,7.50
2023-04-30T08:20:50.041Z,6.40
2023-04-30T08:25:51.780Z,5.70
2023-04-30T08:30:55.874Z,6.80
2023-04-30T08:35:57.478Z,6.72
2023-04-30T08:41:12.120Z,5.35
2023-04-30T08:46:16.653Z,5.65
2023-04-30T08:51:18.671Z,5.45
2023-04-30T08:56:22.253Z,5.22
2023-04-30T09:01:25.754Z,4.00
2023-04-30T09:06:27.498Z,5.65
2023-04-30T09:11:30.935Z,5.88
2023-04-30T09:16:47.008Z,6.20
2023-04-30T09:21:48.502Z,6.00
2023-04-30T09:26:51.082Z,6.05
2023-04-30T09:31:52.681Z,5.88
2023-04-30T09:36:55.197Z,5.60
2023-04-30T09:42:12.441Z,5.30
2023-04-30T09:47:21.119Z,5.90
2023-04-30T09:52:22.911Z,4.68
2023-04-30T09:57:24.744Z,4.53
2023-04-30T10:02:27.164Z,4.60
2023-04-30T10:07:36.271Z,3.83
2023-04-30T10:12:54.913Z,4.00
2023-04-30T10:18:06.480Z,4.22
2023-04-30T10:23:08.551Z,3.78
2023-04-30T10:28:11.512Z,3.55
2023-04-30T10:33:20.077Z,3.00
2023-04-30T10:38:27.817Z,3.00
2023-04-30T10:43:33.369Z,2.97
2023-04-30T10:48:36.042Z,3.28
2023-04-30T10:53:40.185Z,2.75
2023-04-30T10:58:41.857Z,3.72
2023-04-30T11:04:05.335Z,3.33
2023-04-30T11:09:07.331Z,3.28
2023-04-30T11:14:11.759Z,3.05
2023-04-30T11:19:14.160Z,2.63
2023-04-30T11:24:15.759Z,2.80
2023-04-30T11:29:18.043Z,2.95
2023-04-30T11:34:20.089Z,2.53
2023-04-30T11:39:22.487Z,2.50
2023-04-30T11:44:27.692Z,2.65
2023-04-30T11:49:29.355Z,2.58
2023-04-30T11:54:35.638Z,2.30
2023-04-30T11:59:42.374Z,2.40
2023-04-30T12:04:45.282Z,2.40
2023-04-30T12:09:57.243Z,2.22
2023-04-30T12:15:10.324Z,2.20
2023-04-30T12:20:15.116Z,2.15
2023-04-30T12:25:19.535Z,2.20
2023-04-30T12:30:23.635Z,1.88
2023-04-30T12:35:29.062Z,2.08
2023-04-30T12:40:30.764Z,2.30
2023-04-30T12:45:55.774Z,2.05
2023-04-30T12:51:02.098Z,2.28
2023-04-30T12:56:09.964Z,2.25
2023-04-30T13:01:15.376Z,1.90
2023-04-30T13:06:17.230Z,2.45
2023-04-30T13:11:18.813Z,3.00
2023-04-30T13:16:20.473Z,2.35
2023-04-30T13:21:22.972Z,2.40
2023-04-30T13:26:24.515Z,2.60
2023-04-30T13:31:26.169Z,3.25
2023-04-30T13:36:28.765Z,2.58
2023-04-30T13:41:30.343Z,3.28
2023-04-30T13:46:32.035Z,2.85
2023-04-30T13:51:33.714Z,2.50
2023-04-30T13:56:35.417Z,3.25
2023-04-30T14:01:36.979Z,2.90
2023-04-30T14:06:38.834Z,2.80
2023-04-30T14:11:41.554Z,2.60
2023-04-30T14:16:44.848Z,3.00
2023-04-30T14:21:49.049Z,3.05
2023-04-30T14:26:50.582Z,2.55
2023-04-30T14:31:52.130Z,2.20
2023-04-30T14:36:53.760Z,2.30
2023-04-30T14:41:57.406Z,2.78
2023-04-30T14:46:59.252Z,2.80
2023-04-30T14:52:00.931Z,2.90
2023-04-30T14:57:04.047Z,2.95
2023-04-30T15:02:06.376Z,2.80
2023-04-30T15:07:07.910Z,2.45
2023-04-30T15:12:09.445Z,3.03
2023-04-30T15:17:11.346Z,2.80
2023-04-30T15:22:13.304Z,2.45
2023-04-30T15:27:14.833Z,2.45
2023-04-30T15:32:17.169Z,3.45
2023-04-30T15:37:18.954Z,2.63
2023-04-30T15:42:20.592Z,2.72
2023-04-30T15:47:23.985Z,2.60
2023-04-30T15:52:25.777Z,2.83
2023-04-30T15:57:27.546Z,2.58
2023-04-30T16:02:30.189Z,2.83
2023-04-30T16:07:32.251Z,2.60
2023-04-30T16:12:34.294Z,2.70
2023-04-30T16:17:35.861Z,2.90
2023-04-30T16:22:37.521Z,2.97
2023-04-30T16:27:39.380Z,3.15
2023-04-30T16:32:41.404Z,2.53
2023-04-30T16:37:42.928Z,2.83
2023-04-30T16:42:44.444Z,2.67
2023-04-30T16:47:46.032Z,3.10
2023-04-30T16:52:47.578Z,3.17
2023-04-30T16:57:49.270Z,2.80
2023-04-30T17:02:52.996Z,2.17
2023-04-30T17:07:55.246Z,2.53
2023-04-30T17:13:03.917Z,2.55
2023-04-30T17:18:06.170Z,2.80
2023-04-30T17:23:07.882Z,3.20
2023-04-30T17:28:09.470Z,2.50
2023-04-30T17:33:11.228Z,2.53
2023-04-30T17:38:12.769Z,2.65
2023-04-30T17:43:14.426Z,2.88
2023-04-30T17:48:15.940Z,2.70
2023-04-30T17:53:17.454Z,2.40
2023-04-30T17:58:19.223Z,2.60
2023-04-30T18:03:20.907Z,2.90
2023-04-30T18:08:22.698Z,2.78
2023-04-30T18:13:24.214Z,2.88
2023-04-30T18:18:25.779Z,2.50
2023-04-30T18:23:27.376Z,2.72
2023-04-30T18:28:29.144Z,2.70
2023-04-30T18:33:31.120Z,3.00
2023-04-30T18:38:32.998Z,3.08
2023-04-30T18:43:37.106Z,3.40
2023-04-30T18:48:38.734Z,3.13
2023-04-30T18:53:41.844Z,3.10
2023-04-30T18:58:45.607Z,2.72
2023-04-30T19:03:47.727Z,3.70
2023-04-30T19:08:49.661Z,3.30
2023-04-30T19:13:51.354Z,3.85
2023-04-30T19:18:52.924Z,3.72
2023-04-30T19:23:54.599Z,4.30
2023-04-30T19:28:56.176Z,3.95
2023-04-30T19:33:59.833Z,3.90
2023-04-30T19:39:01.404Z,4.03
2023-04-30T19:44:03.057Z,4.80
2023-04-30T19:49:04.629Z,6.15
2023-04-30T19:54:06.730Z,6.65
2023-04-30T19:59:09.378Z,7.18
2023-04-30T20:04:11.099Z,6.30
2023-04-30T20:09:12.761Z,5.32
2023-04-30T20:14:14.268Z,4.75
2023-04-30T20:19:15.790Z,6.07
2023-04-30T20:24:17.746Z,6.53
2023-04-30T20:29:20.677Z,7.68
2023-04-30T20:34:22.974Z,5.95
2023-04-30T20:39:24.692Z,6.90
2023-04-30T20:44:26.892Z,6.45
2023-04-30T20:49:28.633Z,6.95
2023-04-30T20:54:30.378Z,6.68
2023-04-30T20:59:32.523Z,6.45
2023-04-30T21:04:34.252Z,6.10
2023-04-30T21:09:37.031Z,6.20
2023-04-30T21:14:38.611Z,5.65
2023-04-30T21:19:40.468Z,4.85
2023-04-30T21:24:42.591Z,5.25
2023-04-30T21:29:44.142Z,4.50
2023-04-30T21:34:46.019Z,4.95
2023-04-30T21:39:47.543Z,4.68
2023-04-30T21:44:49.146Z,4.90
2023-04-30T21:49:50.753Z,4.70
2023-04-30T21:54:52.334Z,4.75
2023-04-30T21:59:54.197Z,4.60
2023-04-30T22:04:57.438Z,5.10
2023-04-30T22:09:59.093Z,4.82
2023-04-30T22:15:01.668Z,5.30
2023-04-30T22:20:03.431Z,4.72
2023-04-30T22:25:05.533Z,4.82
2023-04-30T22:30:07.585Z,4.50
2023-04-30T22:35:10.959Z,5.10
2023-04-30T22:40:12.827Z,4.95
2023-04-30T22:45:14.619Z,4.82
2023-04-30T22:50:16.560Z,5.45
2023-04-30T22:55:18.427Z,5.32
2023-04-30T23:00:20.288Z,5.45
2023-04-30T23:05:21.842Z,5.40
2023-04-30T23:10:23.478Z,5.35
2023-04-30T23:15:25.995Z,5.22
2023-04-30T23:20:28.344Z,5.68
2023-04-30T23:25:32.239Z,5.22
2023-04-30T23:30:37.921Z,5.30
2023-04-30T23:35:42.286Z,5.40
2023-04-30T23:40:43.901Z,5.07
2023-04-30T23:45:45.540Z,6.15
2023-04-30T23:50:47.944Z,5.03
2023-04-30T23:55:49.592Z,5.25
